createdAt,value
2018-09-22T00:00:11.673Z,1008.95
2018-09-22T00:01:11.655Z,1008.95
2018-09-22T00:02:11.635Z,1008.97
2018-09-22T00:03:11.617Z,1008.98
2018-09-22T00:04:11.598Z,1008.97
2018-09-22T00:05:11.575Z,1008.98
2018-09-22T00:06:11.558Z,1008.93
2018-09-22T00:07:11.542Z,1008.99
2018-09-22T00:08:11.522Z,1008.95
2018-09-22T00:09:11.502Z,1009.00
2018-09-22T00:10:11.485Z,1008.99
2018-09-22T00:11:11.467Z,1008.94
2018-09-22T00:12:11.452Z,1008.99
2018-09-22T00:13:11.430Z,1008.95
2018-09-22T00:14:11.411Z,1008.99
2018-09-22T00:15:11.395Z,1008.94
2018-09-22T00:16:11.379Z,1008.95
2018-09-22T00:17:11.363Z,1008.95
2018-09-22T00:18:11.335Z,1008.96
2018-09-22T00:19:11.316Z,1008.91
2018-09-22T00:20:11.307Z,1008.89
2018-09-22T00:21:11.281Z,1008.94
2018-09-22T00:22:11.263Z,1008.95
2018-09-22T00:23:11.245Z,1008.95
2018-09-22T00:24:11.229Z,1009.03
2018-09-22T00:25:11.209Z,1009.01
2018-09-22T00:26:11.190Z,1009.06
2018-09-22T00:27:11.208Z,1009.02
2018-09-22T00:28:11.152Z,1009.05
2018-09-22T00:29:11.138Z,1009.10
2018-09-22T00:30:11.111Z,1009.12
2018-09-22T00:31:11.095Z,1009.14
2018-09-22T00:32:11.079Z,1009.14
2018-09-22T00:33:11.057Z,1009.16
2018-09-22T00:34:11.040Z,1009.12
2018-09-22T00:35:11.024Z,1009.14
2018-09-22T00:36:11.005Z,1009.16
2018-09-22T00:37:10.982Z,1009.20
2018-09-22T00:38:10.971Z,1009.24
2018-09-22T00:39:10.947Z,1009.19
2018-09-22T00:40:10.928Z,1009.24
2018-09-22T00:41:10.914Z,1009.21
2018-09-22T00:42:10.890Z,1009.23
2018-09-22T00:43:10.869Z,1009.26
2018-09-22T00:44:10.862Z,1009.31
2018-09-22T00:45:10.833Z,1009.26
2018-09-22T00:46:10.813Z,1009.37
2018-09-22T00:47:10.797Z,1009.29
2018-09-22T00:48:10.777Z,1009.24
2018-09-22T00:49:10.760Z,1009.23
2018-09-22T00:50:10.743Z,1009.28
2018-09-22T00:51:10.720Z,1009.29
2018-09-22T00:52:10.705Z,1009.25
2018-09-22T00:53:10.681Z,1009.25
2018-09-22T00:54:10.666Z,1009.31
2018-09-22T00:55:10.648Z,1009.31
2018-09-22T00:56:10.629Z,1009.30
2018-09-22T00:57:10.607Z,1009.32
2018-09-22T00:58:10.590Z,1009.36
2018-09-22T00:59:10.570Z,1009.34
2018-09-22T01:00:10.549Z,1009.32
2018-09-22T01:01:10.535Z,1009.30
2018-09-22T01:02:10.511Z,1009.42
2018-09-22T01:03:10.496Z,1009.31
2018-09-22T01:04:10.479Z,1009.36
2018-09-22T01:05:10.458Z,1009.31
2018-09-22T01:06:10.437Z,1009.26
2018-09-22T01:07:10.421Z,1009.30
2018-09-22T01:08:10.399Z,1009.39
2018-09-22T01:09:10.401Z,1009.31
2018-09-22T01:10:10.360Z,1009.31
2018-09-22T01:11:10.347Z,1009.35
2018-09-22T01:12:10.326Z,1009.39
2018-09-22T01:13:10.309Z,1009.32
2018-09-22T01:14:10.287Z,1009.37
2018-09-22T01:15:10.271Z,1009.43
2018-09-22T01:16:10.251Z,1009.42
2018-09-22T01:17:10.233Z,1009.45
2018-09-22T01:18:10.213Z,1009.46
2018-09-22T01:19:10.193Z,1009.47
2018-09-22T01:20:10.175Z,1009.49
2018-09-22T01:21:10.154Z,1009.45
2018-09-22T01:22:10.136Z,1009.43
2018-09-22T01:23:10.117Z,1009.38
2018-09-22T01:24:10.101Z,1009.40
2018-09-22T01:25:10.084Z,1009.45
2018-09-22T01:26:10.059Z,1009.49
2018-09-22T01:27:10.041Z,1009.48
2018-09-22T01:28:10.028Z,1009.50
2018-09-22T01:29:10.004Z,1009.52
2018-09-22T01:30:09.984Z,1009.54
2018-09-22T01:31:09.969Z,1009.54
2018-09-22T01:32:09.948Z,1009.52
2018-09-22T01:33:09.931Z,1009.53
2018-09-22T01:34:09.915Z,1009.51
2018-09-22T01:35:09.889Z,1009.53
2018-09-22T01:36:09.874Z,1009.54
2018-09-22T01:37:09.853Z,1009.54
2018-09-22T01:38:09.832Z,1009.59
2018-09-22T01:39:09.821Z,1009.61
2018-09-22T01:40:09.796Z,1009.70
2018-09-22T01:41:09.776Z,1009.62
2018-09-22T01:42:09.761Z,1009.68
2018-09-22T01:43:09.742Z,1009.70
2018-09-22T01:44:09.719Z,1009.67
2018-09-22T01:45:09.702Z,1009.70
2018-09-22T01:46:09.679Z,1009.67
2018-09-22T01:47:09.663Z,1009.63
2018-09-22T01:48:09.651Z,1009.66
2018-09-22T01:49:09.628Z,1009.68
2018-09-22T01:50:09.606Z,1009.68
2018-09-22T01:51:09.587Z,1009.75
2018-09-22T01:52:09.569Z,1009.70
2018-09-22T01:53:09.548Z,1009.72
2018-09-22T01:54:09.530Z,1009.72
2018-09-22T01:55:09.511Z,1009.66
2018-09-22T01:56:13.136Z,1009.64
2018-09-22T01:57:09.469Z,1009.67
2018-09-22T01:58:09.454Z,1009.71
2018-09-22T01:59:09.442Z,1009.68
2018-09-22T02:00:09.418Z,1009.70
2018-09-22T02:01:09.398Z,1009.70
2018-09-22T02:02:09.380Z,1009.73
2018-09-22T02:03:09.358Z,1009.70
2018-09-22T02:04:09.340Z,1009.71
2018-09-22T02:05:09.320Z,1009.69
2018-09-22T02:06:09.301Z,1009.71
2018-09-22T02:07:09.282Z,1009.70
2018-09-22T02:08:09.267Z,1009.80
2018-09-22T02:09:09.249Z,1009.79
2018-09-22T02:10:09.227Z,1009.83
2018-09-22T02:11:09.204Z,1009.82
2018-09-22T02:12:09.190Z,1009.77
2018-09-22T02:13:09.170Z,1009.80
2018-09-22T02:14:09.151Z,1009.77
2018-09-22T02:15:09.136Z,1009.78
2018-09-22T02:16:09.113Z,1009.76
2018-09-22T02:17:09.096Z,1009.85
2018-09-22T02:18:09.070Z,1009.84
2018-09-22T02:19:09.058Z,1009.84
2018-09-22T02:20:09.038Z,1009.86
2018-09-22T02:21:09.017Z,1009.91
2018-09-22T02:22:08.997Z,1009.93
2018-09-22T02:23:08.986Z,1009.88
2018-09-22T02:24:08.964Z,1009.90
2018-09-22T02:25:08.943Z,1009.97
2018-09-22T02:26:08.926Z,1009.98
2018-09-22T02:27:08.908Z,1009.99
2018-09-22T02:28:08.887Z,1009.93
2018-09-22T02:29:08.867Z,1009.93
2018-09-22T02:30:08.850Z,1009.85
2018-09-22T02:31:08.828Z,1009.95
2018-09-22T02:32:08.811Z,1009.90
2018-09-22T02:33:08.795Z,1009.84
2018-09-22T02:34:08.772Z,1009.87
2018-09-22T02:35:08.754Z,1009.83
2018-09-22T02:36:08.739Z,1009.81
2018-09-22T02:37:08.716Z,1009.89
2018-09-22T02:38:08.696Z,1009.88
2018-09-22T02:39:08.680Z,1009.89
2018-09-22T02:40:08.659Z,1009.91
2018-09-22T02:41:08.643Z,1009.90
2018-09-22T02:42:08.625Z,1009.92
2018-09-22T02:43:08.601Z,1009.95
2018-09-22T02:44:08.586Z,1009.93
2018-09-22T02:45:08.564Z,1009.92
2018-09-22T02:46:08.548Z,1009.88
2018-09-22T02:47:08.530Z,1009.86
2018-09-22T02:48:08.509Z,1009.90
2018-09-22T02:49:08.487Z,1009.90
2018-09-22T02:50:08.471Z,1010.04
2018-09-22T02:51:08.453Z,1009.98
2018-09-22T02:52:08.437Z,1009.95
2018-09-22T02:53:08.414Z,1009.95
2018-09-22T02:54:08.390Z,1009.99
2018-09-22T02:55:08.376Z,1010.00
2018-09-22T02:56:08.356Z,1009.96
2018-09-22T02:57:08.336Z,1010.01
2018-09-22T02:58:08.320Z,1010.02
2018-09-22T02:59:08.297Z,1010.01
2018-09-22T03:00:08.282Z,1010.07
2018-09-22T03:01:08.259Z,1010.02
2018-09-22T03:02:08.241Z,1009.99
2018-09-22T03:03:08.218Z,1010.02
2018-09-22T03:04:08.201Z,1010.01
2018-09-22T03:05:08.184Z,1010.00
2018-09-22T03:06:08.168Z,1010.04
2018-09-22T03:07:08.148Z,1010.04
2018-09-22T03:08:08.132Z,1010.01
2018-09-22T03:09:08.113Z,1010.05
2018-09-22T03:10:08.092Z,1010.05
2018-09-22T03:11:08.073Z,1010.03
2018-09-22T03:12:08.050Z,1010.03
2018-09-22T03:13:08.032Z,1010.04
2018-09-22T03:14:08.013Z,1010.00
2018-09-22T03:15:07.998Z,1010.03
2018-09-22T03:16:07.972Z,1010.01
2018-09-22T03:17:07.952Z,1010.08
2018-09-22T03:18:07.936Z,1010.05
2018-09-22T03:19:07.921Z,1010.08
2018-09-22T03:20:07.901Z,1010.09
2018-09-22T03:21:07.878Z,1010.07
2018-09-22T03:22:07.860Z,1010.05
2018-09-22T03:23:07.841Z,1010.04
2018-09-22T03:24:07.824Z,1010.08
2018-09-22T03:25:07.809Z,1010.09
2018-09-22T03:26:07.784Z,1010.11
2018-09-22T03:27:07.769Z,1010.12
2018-09-22T03:28:07.748Z,1010.15
2018-09-22T03:29:07.725Z,1010.15
2018-09-22T03:30:07.708Z,1010.15
2018-09-22T03:31:07.686Z,1010.11
2018-09-22T03:32:07.666Z,1010.08
2018-09-22T03:33:07.655Z,1010.10
2018-09-22T03:34:07.632Z,1010.10
2018-09-22T03:35:07.620Z,1010.09
2018-09-22T03:36:07.590Z,1010.10
2018-09-22T03:37:07.573Z,1010.11
2018-09-22T03:38:07.558Z,1010.14
2018-09-22T03:39:07.537Z,1010.11
2018-09-22T03:40:07.515Z,1010.12
2018-09-22T03:41:07.497Z,1010.12
2018-09-22T03:42:07.479Z,1010.16
2018-09-22T03:43:07.456Z,1010.18
2018-09-22T03:44:07.439Z,1010.21
2018-09-22T03:45:07.420Z,1010.27
2018-09-22T03:46:07.400Z,1010.28
2018-09-22T03:47:07.388Z,1010.25
2018-09-22T03:48:07.361Z,1010.29
2018-09-22T03:49:07.344Z,1010.22
2018-09-22T03:50:07.328Z,1010.25
2018-09-22T03:51:07.305Z,1010.24
2018-09-22T03:52:07.287Z,1010.29
2018-09-22T03:53:07.269Z,1010.37
2018-09-22T03:54:07.247Z,1010.24
2018-09-22T03:55:07.231Z,1010.30
2018-09-22T03:56:07.208Z,1010.33
2018-09-22T03:57:07.191Z,1010.29
2018-09-22T03:58:07.174Z,1010.24
2018-09-22T03:59:07.157Z,1010.23
2018-09-22T04:00:07.131Z,1010.26
2018-09-22T04:01:07.115Z,1010.26
2018-09-22T04:02:07.094Z,1010.23
2018-09-22T04:03:07.080Z,1010.28
2018-09-22T04:04:07.055Z,1010.31
2018-09-22T04:05:07.037Z,1010.31
2018-09-22T04:06:07.015Z,1010.31
2018-09-22T04:07:06.998Z,1010.35
2018-09-22T04:08:06.979Z,1010.34
2018-09-22T04:09:06.956Z,1010.33
2018-09-22T04:10:06.939Z,1010.28
2018-09-22T04:11:06.920Z,1010.31
2018-09-22T04:12:06.903Z,1010.27
2018-09-22T04:13:06.880Z,1010.29
2018-09-22T04:14:06.864Z,1010.30
2018-09-22T04:15:06.841Z,1010.32
2018-09-22T04:16:06.827Z,1010.24
2018-09-22T04:17:06.804Z,1010.23
2018-09-22T04:18:06.785Z,1010.26
2018-09-22T04:19:06.765Z,1010.26
2018-09-22T04:20:06.748Z,1010.29
2018-09-22T04:21:07.534Z,1010.36
2018-09-22T04:22:06.711Z,1010.35
2018-09-22T04:23:06.687Z,1010.35
2018-09-22T04:24:06.675Z,1010.39
2018-09-22T04:25:06.649Z,1010.46
2018-09-22T04:26:06.629Z,1010.44
2018-09-22T04:27:06.613Z,1010.44
2018-09-22T04:28:06.593Z,1010.43
2018-09-22T04:29:06.569Z,1010.52
2018-09-22T04:30:06.551Z,1010.54
2018-09-22T04:31:06.533Z,1010.56
2018-09-22T04:32:06.512Z,1010.52
2018-09-22T04:33:06.490Z,1010.58
2018-09-22T04:34:06.470Z,1010.59
2018-09-22T04:35:06.453Z,1010.59
2018-09-22T04:36:06.437Z,1010.65
2018-09-22T04:37:06.413Z,1010.63
2018-09-22T04:38:06.395Z,1010.64
2018-09-22T04:39:06.373Z,1010.70
2018-09-22T04:40:06.364Z,1010.71
2018-09-22T04:41:06.336Z,1010.73
2018-09-22T04:42:06.319Z,1010.72
2018-09-22T04:43:06.299Z,1010.70
2018-09-22T04:44:06.277Z,1010.67
2018-09-22T04:45:06.262Z,1010.67
2018-09-22T04:46:06.239Z,1010.76
2018-09-22T04:47:06.220Z,1010.72
2018-09-22T04:48:06.203Z,1010.76
2018-09-22T04:49:06.179Z,1010.78
2018-09-22T04:50:06.162Z,1010.78
2018-09-22T04:51:06.142Z,1010.79
2018-09-22T04:52:06.125Z,1010.75
2018-09-22T04:53:06.111Z,1010.79
2018-09-22T04:54:06.084Z,1010.72
2018-09-22T04:55:06.066Z,1010.80
2018-09-22T04:56:06.045Z,1010.82
2018-09-22T04:57:06.033Z,1010.84
2018-09-22T04:58:06.005Z,1010.84
2018-09-22T04:59:05.988Z,1010.85
2018-09-22T05:00:05.964Z,1010.88
2018-09-22T05:01:05.943Z,1010.85
2018-09-22T05:02:05.932Z,1010.84
2018-09-22T05:03:05.909Z,1010.88
2018-09-22T05:04:05.886Z,1010.90
2018-09-22T05:05:05.871Z,1010.95
2018-09-22T05:06:05.849Z,1010.99
2018-09-22T05:07:05.827Z,1010.95
2018-09-22T05:08:05.811Z,1010.96
2018-09-22T05:09:05.791Z,1010.97
2018-09-22T05:10:05.773Z,1010.98
2018-09-22T05:11:05.747Z,1011.05
2018-09-22T05:12:05.733Z,1011.05
2018-09-22T05:13:05.713Z,1011.07
2018-09-22T05:14:05.690Z,1011.07
2018-09-22T05:15:05.677Z,1011.06
2018-09-22T05:16:05.654Z,1011.08
2018-09-22T05:17:05.708Z,1011.18
2018-09-22T05:18:05.617Z,1011.20
2018-09-22T05:19:05.600Z,1011.17
2018-09-22T05:20:05.573Z,1011.15
2018-09-22T05:21:05.553Z,1011.26
2018-09-22T05:22:05.533Z,1011.21
2018-09-22T05:23:05.511Z,1011.24
2018-09-22T05:24:05.494Z,1011.30
2018-09-22T05:25:05.476Z,1011.35
2018-09-22T05:26:05.462Z,1011.33
2018-09-22T05:27:05.438Z,1011.31
2018-09-22T05:28:05.417Z,1011.40
2018-09-22T05:29:05.399Z,1011.36
2018-09-22T05:30:05.383Z,1011.34
2018-09-22T05:31:05.358Z,1011.46
2018-09-22T05:32:05.341Z,1011.53
2018-09-22T05:33:05.321Z,1011.44
2018-09-22T05:34:05.300Z,1011.47
2018-09-22T05:35:05.284Z,1011.47
2018-09-22T05:36:05.261Z,1011.44
2018-09-22T05:37:05.243Z,1011.50
2018-09-22T05:38:05.225Z,1011.52
2018-09-22T05:39:05.201Z,1011.54
2018-09-22T05:40:05.181Z,1011.57
2018-09-22T05:41:05.167Z,1011.45
2018-09-22T05:42:05.144Z,1011.46
2018-09-22T05:43:05.126Z,1011.52
2018-09-22T05:44:05.107Z,1011.50
2018-09-22T05:45:05.093Z,1011.49
2018-09-22T05:46:05.064Z,1011.51
2018-09-22T05:47:05.046Z,1011.55
2018-09-22T05:48:05.035Z,1011.59
2018-09-22T05:49:05.008Z,1011.53
2018-09-22T05:50:04.989Z,1011.55
2018-09-22T05:51:04.963Z,1011.59
2018-09-22T05:52:04.949Z,1011.61
2018-09-22T05:53:04.925Z,1011.61
2018-09-22T05:54:04.947Z,1011.65
2018-09-22T05:55:04.888Z,1011.67
2018-09-22T05:56:04.874Z,1011.70
2018-09-22T05:57:04.845Z,1011.80
2018-09-22T05:58:04.886Z,1011.79
2018-09-22T05:59:04.807Z,1011.83
2018-09-22T06:00:04.785Z,1011.83
2018-09-22T06:01:04.765Z,1011.81
2018-09-22T06:02:04.745Z,1011.87
2018-09-22T06:03:04.737Z,1011.88
2018-09-22T06:04:04.705Z,1011.91
2018-09-22T06:05:04.687Z,1011.90
2018-09-22T06:06:04.666Z,1011.93
2018-09-22T06:07:04.652Z,1011.88
2018-09-22T06:08:04.625Z,1011.90
2018-09-22T06:09:04.607Z,1011.97
2018-09-22T06:10:04.585Z,1011.91
2018-09-22T06:11:04.570Z,1011.98
2018-09-22T06:12:04.545Z,1012.00
2018-09-22T06:13:04.527Z,1012.03
2018-09-22T06:14:04.507Z,1012.03
2018-09-22T06:15:04.486Z,1012.10
2018-09-22T06:16:04.467Z,1012.11
2018-09-22T06:17:04.442Z,1012.08
2018-09-22T06:18:04.427Z,1012.05
2018-09-22T06:19:04.407Z,1012.00
2018-09-22T06:20:04.384Z,1012.06
2018-09-22T06:21:04.363Z,1012.15
2018-09-22T06:22:04.349Z,1012.04
2018-09-22T06:23:04.418Z,1012.10
2018-09-22T06:24:04.306Z,1012.07
2018-09-22T06:25:04.286Z,1012.14
2018-09-22T06:26:04.264Z,1012.15
2018-09-22T06:27:04.248Z,1012.17
2018-09-22T06:28:04.225Z,1012.19
2018-09-22T06:29:04.205Z,1012.22
2018-09-22T06:30:04.189Z,1012.28
2018-09-22T06:31:04.175Z,1012.19
2018-09-22T06:32:04.147Z,1012.19
2018-09-22T06:33:04.123Z,1012.24
2018-09-22T06:34:04.105Z,1012.21
2018-09-22T06:35:04.088Z,1012.24
2018-09-22T06:36:04.066Z,1012.22
2018-09-22T06:37:04.063Z,1012.22
2018-09-22T06:38:04.027Z,1012.23
2018-09-22T06:39:04.026Z,1012.32
2018-09-22T06:40:03.985Z,1012.32
2018-09-22T06:41:03.960Z,1012.38
2018-09-22T06:42:03.950Z,1012.43
2018-09-22T06:43:03.929Z,1012.42
2018-09-22T06:44:03.909Z,1012.42
2018-09-22T06:45:03.882Z,1012.41
2018-09-22T06:46:03.917Z,1012.43
2018-09-22T06:47:03.847Z,1012.44
2018-09-22T06:48:03.830Z,1012.43
2018-09-22T06:49:03.804Z,1012.46
2018-09-22T06:50:03.795Z,1012.47
2018-09-22T06:51:03.767Z,1012.49
2018-09-22T06:52:03.752Z,1012.49
2018-09-22T06:53:03.723Z,1012.50
2018-09-22T06:54:03.705Z,1012.50
2018-09-22T06:55:03.689Z,1012.49
2018-09-22T06:56:03.670Z,1012.48
2018-09-22T06:57:03.648Z,1012.49
2018-09-22T06:58:03.633Z,1012.55
2018-09-22T06:59:03.609Z,1012.55
2018-09-22T07:00:03.586Z,1012.56
2018-09-22T07:01:03.567Z,1012.61
2018-09-22T07:02:03.552Z,1012.63
2018-09-22T07:03:03.536Z,1012.66
2018-09-22T07:04:03.509Z,1012.63
2018-09-22T07:05:03.491Z,1012.69
2018-09-22T07:06:03.474Z,1012.77
2018-09-22T07:07:03.454Z,1012.67
2018-09-22T07:08:03.429Z,1012.68
2018-09-22T07:09:03.413Z,1012.75
2018-09-22T07:10:03.387Z,1012.83
2018-09-22T07:11:03.372Z,1012.81
2018-09-22T07:12:03.353Z,1012.94
2018-09-22T07:13:03.336Z,1013.01
2018-09-22T07:14:03.319Z,1012.98
2018-09-22T07:15:03.294Z,1012.86
2018-09-22T07:16:03.276Z,1012.88
2018-09-22T07:17:03.257Z,1013.09
2018-09-22T07:18:03.245Z,1013.10
2018-09-22T07:19:03.217Z,1013.19
2018-09-22T07:20:03.197Z,1013.38
2018-09-22T07:21:03.177Z,1013.08
2018-09-22T07:22:03.160Z,1012.93
2018-09-22T07:23:03.139Z,1012.95
2018-09-22T07:24:03.128Z,1012.90
2018-09-22T07:25:03.107Z,1012.91
2018-09-22T07:26:03.080Z,1012.85
2018-09-22T07:27:03.064Z,1012.81
2018-09-22T07:28:03.046Z,1012.84
2018-09-22T07:29:03.032Z,1012.83
2018-09-22T07:30:03.006Z,1012.99
2018-09-22T07:31:02.995Z,1013.10
2018-09-22T07:32:02.971Z,1013.10
2018-09-22T07:33:02.952Z,1013.08
2018-09-22T07:34:02.931Z,1013.27
2018-09-22T07:35:02.915Z,1013.44
2018-09-22T07:36:02.897Z,1013.19
2018-09-22T07:37:02.879Z,1013.12
2018-09-22T07:38:02.870Z,1013.16
2018-09-22T07:39:02.840Z,1013.33
2018-09-22T07:40:02.828Z,1013.50
2018-09-22T07:41:02.812Z,1013.77
2018-09-22T07:42:02.789Z,1013.76
2018-09-22T07:43:02.771Z,1013.64
2018-09-22T07:44:02.749Z,1013.41
2018-09-22T07:45:02.735Z,1013.87
2018-09-22T07:46:02.712Z,1014.56
2018-09-22T07:47:02.701Z,1013.77
2018-09-22T07:48:02.679Z,1013.66
2018-09-22T07:49:02.715Z,1015.15
2018-09-22T07:50:02.645Z,1013.79
2018-09-22T07:51:02.627Z,1013.72
2018-09-22T07:52:02.609Z,1013.75
2018-09-22T07:53:02.591Z,1013.43
2018-09-22T07:54:02.573Z,1013.25
2018-09-22T07:55:02.554Z,1013.55
2018-09-22T07:56:02.535Z,1016.88
2018-09-22T07:57:02.563Z,1016.65
2018-09-22T07:58:02.500Z,1016.98
2018-09-22T07:59:02.487Z,1016.77
2018-09-22T08:00:02.471Z,1016.98
2018-09-22T08:01:02.448Z,1014.12
2018-09-22T08:02:02.432Z,1013.41
2018-09-22T08:03:02.425Z,1018.55
2018-09-22T08:04:02.397Z,1018.93
2018-09-22T08:05:02.384Z,1014.48
2018-09-22T08:06:02.365Z,1013.29
2018-09-22T08:07:02.350Z,1013.43
2018-09-22T08:08:02.327Z,1013.54
2018-09-22T08:09:02.317Z,1013.99
2018-09-22T08:10:02.304Z,1014.38
2018-09-22T08:11:02.282Z,1013.45
2018-09-22T08:12:02.268Z,1013.67
2018-09-22T08:13:02.247Z,1013.74
2018-09-22T08:14:02.235Z,1014.23
2018-09-22T08:15:02.227Z,1013.62
2018-09-22T08:16:02.203Z,1013.84
2018-09-22T08:17:02.195Z,1013.53
2018-09-22T08:18:02.173Z,1013.49
2018-09-22T08:19:02.155Z,1013.45
2018-09-22T08:20:02.144Z,1013.50
2018-09-22T08:21:02.123Z,1013.51
2018-09-22T08:22:02.109Z,1013.52
2018-09-22T08:23:02.092Z,1013.44
2018-09-22T08:24:02.077Z,1013.46
2018-09-22T08:25:02.059Z,1013.44
2018-09-22T08:26:02.043Z,1013.62
2018-09-22T08:27:02.037Z,1014.81
2018-09-22T08:28:02.015Z,1018.21
2018-09-22T08:29:01.991Z,1014.01
2018-09-22T08:30:01.980Z,1014.06
2018-09-22T08:31:01.957Z,1013.66
2018-09-22T08:32:01.998Z,1013.66
2018-09-22T08:33:01.929Z,1013.56
2018-09-22T08:34:01.916Z,1013.58
2018-09-22T08:35:01.899Z,1013.61
2018-09-22T08:36:01.964Z,1013.68
2018-09-22T08:37:02.036Z,1013.82
2018-09-22T08:38:01.845Z,1013.69
2018-09-22T08:39:01.831Z,1013.66
2018-09-22T08:40:01.816Z,1013.77
2018-09-22T08:41:01.809Z,1013.91
2018-09-22T08:42:01.785Z,1013.77
2018-09-22T08:43:01.766Z,1013.83
2018-09-22T08:44:01.799Z,1013.76
2018-09-22T08:45:01.794Z,1013.86
2018-09-22T08:46:01.719Z,1013.75
2018-09-22T08:47:01.696Z,1013.68
2018-09-22T08:48:01.690Z,1013.67
2018-09-22T08:49:01.668Z,1013.64
2018-09-22T08:50:01.728Z,1013.65
2018-09-22T08:51:01.661Z,1013.68
2018-09-22T08:52:01.625Z,1013.66
2018-09-22T08:53:01.607Z,1013.68
2018-09-22T08:54:01.583Z,1013.59
2018-09-22T08:55:01.572Z,1013.71
2018-09-22T08:56:01.555Z,1013.73
2018-09-22T08:57:01.537Z,1013.77
2018-09-22T08:58:01.524Z,1013.92
2018-09-22T08:59:01.505Z,1014.10
2018-09-22T09:00:01.486Z,1014.13
2018-09-22T09:01:01.469Z,1014.12
2018-09-22T09:02:01.451Z,1013.95
2018-09-22T09:03:01.433Z,1013.85
2018-09-22T09:04:01.417Z,1013.81
2018-09-22T09:05:01.479Z,1013.83
2018-09-22T09:06:01.384Z,1013.90
2018-09-22T09:07:01.370Z,1013.81
2018-09-22T09:08:01.353Z,1013.78
2018-09-22T09:09:01.339Z,1013.90
2018-09-22T09:10:01.320Z,1014.10
2018-09-22T09:11:01.317Z,1013.86
2018-09-22T09:12:01.287Z,1013.92
2018-09-22T09:13:01.273Z,1014.10
2018-09-22T09:14:01.309Z,1013.92
2018-09-22T09:15:01.241Z,1013.82
2018-09-22T09:16:01.223Z,1013.94
2018-09-22T09:17:01.224Z,1013.97
2018-09-22T09:18:01.192Z,1014.00
2018-09-22T09:19:01.171Z,1013.94
2018-09-22T09:20:01.157Z,1013.83
2018-09-22T09:21:01.141Z,1013.83
2018-09-22T09:22:01.125Z,1013.90
2018-09-22T09:23:01.109Z,1014.13
2018-09-22T09:24:01.095Z,1014.09
2018-09-22T09:25:01.081Z,1014.00
2018-09-22T09:26:01.065Z,1013.80
2018-09-22T09:27:01.047Z,1013.74
2018-09-22T09:28:01.031Z,1013.72
2018-09-22T09:29:01.018Z,1013.69
2018-09-22T09:30:01.000Z,1013.77
2018-09-22T09:31:00.980Z,1014.03
2018-09-22T09:32:00.973Z,1014.00
2018-09-22T09:33:00.957Z,1013.95
2018-09-22T09:34:00.939Z,1013.94
2018-09-22T09:35:00.924Z,1013.98
2018-09-22T09:36:00.913Z,1013.92
2018-09-22T09:37:00.887Z,1013.84
2018-09-22T09:38:00.878Z,1013.79
2018-09-22T09:39:00.855Z,1013.78
2018-09-22T09:40:00.840Z,1013.77
2018-09-22T09:41:00.826Z,1013.74
2018-09-22T09:42:00.813Z,1013.78
2018-09-22T09:43:00.791Z,1013.82
2018-09-22T09:44:00.781Z,1013.76
2018-09-22T09:45:00.762Z,1013.76
2018-09-22T09:46:00.751Z,1013.75
2018-09-22T09:47:00.730Z,1013.87
2018-09-22T09:48:00.718Z,1013.81
2018-09-22T09:49:00.702Z,1013.87
2018-09-22T09:50:00.688Z,1013.91
2018-09-22T09:51:00.670Z,1013.85
2018-09-22T09:52:00.654Z,1014.11
2018-09-22T09:53:00.637Z,1014.17
2018-09-22T09:54:00.620Z,1014.02
2018-09-22T09:55:00.615Z,1014.04
2018-09-22T09:56:00.593Z,1014.04
2018-09-22T09:57:00.575Z,1013.98
2018-09-22T09:58:00.562Z,1013.80
2018-09-22T09:59:00.544Z,1013.84
2018-09-22T10:00:00.530Z,1013.96
2018-09-22T10:01:00.518Z,1013.92
2018-09-22T10:02:00.508Z,1013.80
2018-09-22T10:03:00.487Z,1013.71
2018-09-22T10:04:00.468Z,1013.72
2018-09-22T10:05:00.459Z,1013.68
2018-09-22T10:06:00.444Z,1013.65
2018-09-22T10:07:00.428Z,1013.67
2018-09-22T10:08:00.412Z,1013.67
2018-09-22T10:09:00.396Z,1013.71
2018-09-22T10:10:00.382Z,1013.64
2018-09-22T10:11:00.371Z,1013.64
2018-09-22T10:12:00.356Z,1013.70
2018-09-22T10:13:00.336Z,1013.68
2018-09-22T10:14:00.325Z,1013.79
2018-09-22T10:15:00.312Z,1013.68
2018-09-22T10:16:00.296Z,1013.68
2018-09-22T10:17:00.281Z,1013.73
2018-09-22T10:18:00.269Z,1013.72
2018-09-22T10:19:00.261Z,1013.71
2018-09-22T10:20:00.266Z,1013.74
2018-09-22T10:21:00.219Z,1014.10
2018-09-22T10:22:00.206Z,1013.85
2018-09-22T10:23:00.194Z,1013.89
2018-09-22T10:24:00.173Z,1013.91
2018-09-22T10:25:00.160Z,1014.10
2018-09-22T10:26:00.154Z,1014.22
2018-09-22T10:27:00.131Z,1014.20
2018-09-22T10:28:00.161Z,1014.09
2018-09-22T10:29:00.109Z,1013.92
2018-09-22T10:30:00.085Z,1013.80
2018-09-22T10:31:00.073Z,1013.73
2018-09-22T10:32:00.064Z,1013.72
2018-09-22T10:33:00.046Z,1013.62
2018-09-22T10:34:00.030Z,1013.66
2018-09-22T10:35:00.022Z,1013.63
2018-09-22T10:36:00.004Z,1013.69
2018-09-22T10:36:59.992Z,1013.69
2018-09-22T10:37:59.976Z,1014.17
2018-09-22T10:38:59.969Z,1013.84
2018-09-22T10:39:59.950Z,1013.98
2018-09-22T10:40:59.936Z,1013.75
2018-09-22T10:41:59.926Z,1013.77
2018-09-22T10:42:59.910Z,1013.79
2018-09-22T10:43:59.898Z,1013.66
2018-09-22T10:44:59.886Z,1013.67
2018-09-22T10:45:59.868Z,1013.85
2018-09-22T10:46:59.857Z,1014.23
2018-09-22T10:47:59.843Z,1014.10
2018-09-22T10:48:59.837Z,1015.20
2018-09-22T10:49:59.815Z,1014.39
2018-09-22T10:50:59.803Z,1013.86
2018-09-22T10:51:59.792Z,1013.82
2018-09-22T10:52:59.786Z,1013.89
2018-09-22T10:53:59.764Z,1013.91
2018-09-22T10:54:59.755Z,1013.80
2018-09-22T10:55:59.740Z,1013.81
2018-09-22T10:56:59.736Z,1013.73
2018-09-22T10:57:59.718Z,1013.70
2018-09-22T10:58:59.703Z,1013.68
2018-09-22T10:59:59.688Z,1013.68
2018-09-22T11:00:59.678Z,1013.72
2018-09-22T11:01:59.667Z,1013.74
2018-09-22T11:02:59.650Z,1013.81
2018-09-22T11:03:59.641Z,1013.86
2018-09-22T11:04:59.628Z,1013.92
2018-09-22T11:05:59.610Z,1013.83
2018-09-22T11:06:59.602Z,1013.83
2018-09-22T11:07:59.583Z,1013.84
2018-09-22T11:08:59.571Z,1013.80
2018-09-22T11:09:59.557Z,1013.69
2018-09-22T11:10:59.543Z,1013.75
2018-09-22T11:11:59.541Z,1013.73
2018-09-22T11:12:59.514Z,1013.76
2018-09-22T11:13:59.506Z,1013.71
2018-09-22T11:14:59.486Z,1013.81
2018-09-22T11:15:59.478Z,1013.77
2018-09-22T11:16:59.466Z,1013.85
2018-09-22T11:17:59.449Z,1013.94
2018-09-22T11:18:59.434Z,1013.87
2018-09-22T11:19:59.419Z,1013.95
2018-09-22T11:20:59.404Z,1013.81
2018-09-22T11:21:59.392Z,1013.83
2018-09-22T11:22:59.378Z,1013.80
2018-09-22T11:23:59.366Z,1014.96
2018-09-22T11:24:59.358Z,1013.80
2018-09-22T11:25:59.346Z,1013.80
2018-09-22T11:26:59.331Z,1014.13
2018-09-22T11:27:59.314Z,1015.02
2018-09-22T11:28:59.301Z,1013.70
2018-09-22T11:29:59.285Z,1013.71
2018-09-22T11:30:59.272Z,1013.96
2018-09-22T11:31:59.260Z,1014.85
2018-09-22T11:32:59.242Z,1014.79
2018-09-22T11:33:59.232Z,1014.74
2018-09-22T11:34:59.218Z,1014.67
2018-09-22T11:35:59.207Z,1014.65
2018-09-22T11:36:59.196Z,1014.52
2018-09-22T11:37:59.182Z,1014.52
2018-09-22T11:38:59.169Z,1014.27
2018-09-22T11:40:00.574Z,1014.53
2018-09-22T11:40:59.159Z,1014.51
2018-09-22T11:41:59.944Z,1014.20
2018-09-22T11:42:59.134Z,1013.93
2018-09-22T11:43:59.116Z,1014.05
2018-09-22T11:44:59.108Z,1014.01
2018-09-22T11:45:59.095Z,1013.63
2018-09-22T11:46:59.089Z,1013.68
2018-09-22T11:47:59.076Z,1013.59
2018-09-22T11:48:59.066Z,1013.64
2018-09-22T11:49:59.057Z,1013.55
2018-09-22T11:50:59.050Z,1013.62
2018-09-22T11:51:59.041Z,1013.50
2018-09-22T11:52:59.029Z,1013.55
2018-09-22T11:53:59.022Z,1013.55
2018-09-22T11:54:59.013Z,1014.46
2018-09-22T11:55:59.002Z,1014.41
2018-09-22T11:56:58.991Z,1013.67
2018-09-22T11:57:58.984Z,1013.74
2018-09-22T11:58:58.972Z,1014.46
2018-09-22T11:59:58.962Z,1014.64
2018-09-22T12:00:58.955Z,1014.38
2018-09-22T12:01:58.959Z,1014.51
2018-09-22T12:02:58.939Z,1014.54
2018-09-22T12:03:58.937Z,1014.61
2018-09-22T12:04:58.919Z,1014.63